Time;durP1;ratioP1;P1;durP2;ratioP2;P2;SDS_P1;SDS_P2;PMS_P1;PMS_P2;Temp;Humidity;BMP_temperature;BMP_pressure;BME280_temperature;BME280_humidity;BME280_pressure;Samples;Min_cycle;Max_cycle;Signal;HPM_P1;HPM_P2
2022/09/02 00:00:11;;;;;;;5.95;2.30;;;;;;;17.01;53.83;101520.59;4770579;30;20059;-60
2022/09/02 00:02:37;;;;;;;5.10;2.80;;;;;;;16.95;53.35;101526.94;4770081;30;20105;-61
2022/09/02 00:05:02;;;;;;;5.93;2.53;;;;;;;16.99;54.36;101533.84;4770677;30;20151;-61
2022/09/02 00:07:28;;;;;;;4.63;2.30;;;;;;;16.95;53.88;101532.22;4770537;30;20058;-61
2022/09/02 00:09:53;;;;;;;4.60;2.10;;;;;;;16.99;53.96;101531.22;4770602;30;20130;-62
2022/09/02 00:12:18;;;;;;;5.38;2.88;;;;;;;16.97;53.53;101525.09;4770416;30;20082;-61
2022/09/02 00:14:44;;;;;;;7.75;3.38;;;;;;;16.93;54.34;101531.41;4770108;30;20043;-60
2022/09/02 00:17:09;;;;;;;8.68;4.30;;;;;;;16.89;54.40;101521.81;4770437;30;20827;-61
2022/09/02 00:19:35;;;;;;;11.68;5.25;;;;;;;16.82;54.89;101519.38;4770290;30;20036;-60
2022/09/02 00:22:01;;;;;;;25.98;9.15;;;;;;;16.85;54.73;101525.47;4770238;30;20352;-61
2022/09/02 00:24:27;;;;;;;82.55;32.72;;;;;;;16.77;54.56;101514.25;4770055;30;20036;-60
2022/09/02 00:26:52;;;;;;;153.32;62.08;;;;;;;16.72;55.00;101515.28;4770199;30;20063;-60
2022/09/02 00:29:17;;;;;;;190.73;76.55;;;;;;;16.59;55.04;101510.31;4770370;30;20094;-60
2022/09/02 00:31:44;;;;;;;162.10;65.20;;;;;;;16.63;55.17;101516.38;4770183;30;20054;-62
2022/09/02 00:34:11;;;;;;;213.77;85.93;;;;;;;16.61;55.69;101515.56;4769743;30;20492;-59
2022/09/02 00:36:36;;;;;;;211.07;82.95;;;;;;;16.54;55.88;101517.50;4769725;30;20381;-61
2022/09/02 00:39:03;;;;;;;181.82;73.85;;;;;;;16.49;55.83;101515.88;4770094;30;20050;-59
2022/09/02 00:41:29;;;;;;;105.50;42.78;;;;;;;16.47;55.86;101517.69;4770016;30;20047;-60
2022/09/02 00:43:58;;;;;;;89.28;34.47;;;;;;;16.40;55.98;101524.06;4770089;30;20355;-60
2022/09/02 00:46:27;;;;;;;78.70;30.05;;;;;;;16.41;55.96;101515.22;4769926;30;20044;-60
2022/09/02 00:48:59;;;;;;;74.30;26.33;;;;;;;16.32;56.21;101505.75;4769513;30;20112;-62
2022/09/02 00:51:30;;;;;;;67.65;24.40;;;;;;;16.30;56.61;101513.72;4769685;30;20125;-60
2022/09/02 00:53:56;;;;;;;50.60;18.17;;;;;;;16.35;56.54;101510.97;4769865;30;20050;-60
2022/09/02 00:56:25;;;;;;;59.15;21.75;;;;;;;16.25;56.94;101504.19;4769275;30;20406;-59
2022/09/02 00:58:52;;;;;;;62.53;23.65;;;;;;;16.19;57.09;101505.22;4769534;30;20113;-60
2022/09/02 01:01:19;;;;;;;70.50;24.75;;;;;;;16.20;57.04;101504.31;4769703;30;20051;-60
2022/09/02 01:03:44;;;;;;;70.18;25.10;;;;;;;16.14;57.18;101501.81;4769610;30;20382;-59
2022/09/02 01:06:14;;;;;;;71.47;27.48;;;;;;;16.11;57.06;101507.19;4769783;30;20044;-61
2022/09/02 01:08:44;;;;;;;94.05;33.17;;;;;;;16.07;57.26;101502.03;4769383;30;20059;-58
2022/09/02 01:11:10;;;;;;;106.00;38.83;;;;;;;15.98;57.87;101493.44;4769449;30;20127;-61
2022/09/02 01:13:41;;;;;;;120.15;42.85;;;;;;;16.05;57.65;101491.50;4769377;30;20135;-62
2022/09/02 01:16:14;;;;;;;170.88;65.40;;;;;;;15.95;57.87;101492.63;4768616;30;20039;-60
2022/09/02 01:18:49;;;;;;;159.10;57.63;;;;;;;15.99;57.86;101496.94;4769225;30;20039;-59
2022/09/02 01:21:14;;;;;;;177.13;64.65;;;;;;;15.86;58.00;101492.88;4769275;30;20139;-60
2022/09/02 01:23:40;;;;;;;164.05;58.92;;;;;;;15.88;58.57;101499.00;4769335;30;20131;-60
2022/09/02 01:26:06;;;;;;;147.95;54.25;;;;;;;15.85;58.90;101493.78;4769308;30;20055;-60
2022/09/02 01:28:33;;;;;;;127.30;47.25;;;;;;;15.78;58.55;101489.53;4769132;30;20055;-63
2022/09/02 01:30:58;;;;;;;118.57;44.80;;;;;;;15.76;58.74;101497.50;4769421;30;20047;-60
2022/09/02 01:33:24;;;;;;;93.20;39.63;;;;;;;15.73;58.47;101488.81;4769092;30;20110;-59
2022/09/02 01:35:50;;;;;;;86.00;35.80;;;;;;;15.70;59.10;101491.53;4769223;30;20044;-59
2022/09/02 01:38:16;;;;;;;78.18;30.10;;;;;;;15.71;58.94;101494.13;4769192;30;20043;-60
2022/09/02 01:40:42;;;;;;;55.80;22.00;;;;;;;15.61;59.20;101488.19;4769072;30;20047;-61
2022/09/02 01:43:14;;;;;;;44.97;17.50;;;;;;;15.59;59.07;101487.34;4768944;30;20367;-59
2022/09/02 01:45:40;;;;;;;;;;;;;;;15.64;57.75;101490.75;4769539;30;20043;-61
2022/09/02 01:48:07;;;;;;;39.28;12.50;;;;;;;15.55;60.09;101484.81;4768988;30;20376;-61
2022/09/02 01:50:34;;;;;;;20.88;8.40;;;;;;;15.56;59.52;101484.81;4768988;30;20051;-60
2022/09/02 01:53:03;;;;;;;16.60;6.70;;;;;;;15.52;59.84;101476.97;4769040;30;20043;-61
2022/09/02 01:55:29;;;;;;;11.63;5.35;;;;;;;15.54;59.97;101477.78;4768701;30;20095;-62
2022/09/02 01:57:54;;;;;;;14.73;5.65;;;;;;;15.54;60.07;101476.03;4768761;30;20445;-59
2022/09/02 02:00:21;;;;;;;8.65;3.75;;;;;;;15.53;59.76;101486.63;4768799;30;20063;-63
2022/09/02 02:02:46;;;;;;;11.20;3.60;;;;;;;15.44;60.48;101482.41;4768927;30;20067;-60
2022/09/02 02:05:12;;;;;;;8.73;3.20;;;;;;;15.44;60.52;101474.50;4768846;30;20094;-59
2022/09/02 02:07:38;;;;;;;7.55;2.75;;;;;;;15.39;60.31;101481.66;4768725;30;20720;-59
2022/09/02 02:10:05;;;;;;;9.38;2.90;;;;;;;15.35;60.49;101484.41;4768683;30;20044;-62
2022/09/02 02:12:30;;;;;;;6.30;2.58;;;;;;;15.36;60.36;101480.84;4768463;30;20120;-59
2022/09/02 02:14:56;;;;;;;10.05;3.03;;;;;;;15.28;60.53;101481.88;4768568;30;20458;-62
2022/09/02 02:17:21;;;;;;;9.88;2.92;;;;;;;15.35;60.58;101482.63;4768667;30;20515;-60
2022/09/02 02:19:46;;;;;;;11.10;2.75;;;;;;;15.29;60.84;101472.22;4768765;30;20078;-60
2022/09/02 02:22:12;;;;;;;10.52;2.95;;;;;;;15.35;60.53;101477.34;4768543;30;20446;-62
2022/09/02 02:24:38;;;;;;;17.40;3.03;;;;;;;15.33;60.93;101474.75;4768164;30;20036;-60
2022/09/02 02:27:03;;;;;;;11.02;3.00;;;;;;;15.42;60.19;101476.28;4768245;30;20182;-60
2022/09/02 02:29:29;;;;;;;14.30;2.90;;;;;;;15.46;60.75;101471.81;4768422;30;20491;-59
2022/09/02 02:31:54;;;;;;;14.20;2.90;;;;;;;15.39;60.73;101465.84;4768562;30;20155;-60
2022/09/02 02:34:19;;;;;;;14.73;2.90;;;;;;;15.36;60.61;101463.28;4768359;30;20039;-59
2022/09/02 02:36:45;;;;;;;11.88;2.80;;;;;;;15.24;60.94;101455.63;4768159;30;20105;-60
2022/09/02 02:39:11;;;;;;;12.55;2.88;;;;;;;15.43;60.48;101470.13;4768395;30;20419;-59
2022/09/02 02:41:38;;;;;;;8.57;2.58;;;;;;;15.47;60.70;101473.56;4768379;30;20039;-61
2022/09/02 02:44:04;;;;;;;7.10;2.50;;;;;;;15.42;60.41;101464.88;4768368;30;20082;-59
2022/09/02 02:46:30;;;;;;;6.63;2.40;;;;;;;15.41;60.73;101468.44;4768255;30;20093;-60
2022/09/02 02:48:57;;;;;;;6.78;2.65;;;;;;;15.34;60.50;101470.34;4768491;30;20048;-61
2022/09/02 02:51:22;;;;;;;5.35;2.30;;;;;;;15.24;60.71;101466.16;4768211;30;20098;-59
2022/09/02 02:53:48;;;;;;;5.35;2.63;;;;;;;15.19;61.30;101463.66;4768236;30;20427;-61
2022/09/02 02:56:13;;;;;;;3.30;2.10;;;;;;;15.23;61.29;101462.69;4768178;30;20071;-62
2022/09/02 02:58:38;;;;;;;7.40;2.40;;;;;;;15.33;61.18;101468.59;4768178;30;20285;-61
2022/09/02 03:01:04;;;;;;;9.83;2.50;;;;;;;15.31;60.94;101455.44;4767842;30;20051;-60
2022/09/02 03:03:30;;;;;;;8.30;2.70;;;;;;;15.29;61.06;101457.25;4768283;30;20296;-61
2022/09/02 03:05:55;;;;;;;4.60;2.28;;;;;;;15.39;61.00;101460.56;4768258;30;20047;-60
2022/09/02 03:08:21;;;;;;;6.60;2.63;;;;;;;15.39;60.28;101455.28;4768234;30;20036;-60
2022/09/02 03:10:50;;;;;;;6.30;2.60;;;;;;;15.33;61.15;101456.28;4768104;30;20094;-61
2022/09/02 03:13:15;;;;;;;6.30;2.40;;;;;;;15.36;61.22;101454.50;4768030;30;20047;-59
2022/09/02 03:15:41;;;;;;;5.13;2.60;;;;;;;15.40;61.16;101457.03;4768253;30;20047;-63
2022/09/02 03:18:07;;;;;;;9.82;2.70;;;;;;;15.37;61.08;101453.59;4768232;30;20750;-60
2022/09/02 03:20:33;;;;;;;6.28;2.83;;;;;;;15.24;60.73;101453.84;4767645;30;20043;-59
2022/09/02 03:22:58;;;;;;;5.45;2.40;;;;;;;15.31;60.90;101457.22;4768170;30;20035;-62
2022/09/02 03:25:26;;;;;;;9.05;2.80;;;;;;;15.27;61.44;101459.06;4767986;30;20063;-61
2022/09/02 03:27:52;;;;;;;5.68;2.90;;;;;;;15.23;61.82;101448.63;4768024;30;20671;-60
2022/09/02 03:30:21;;;;;;;7.47;2.90;;;;;;;15.31;61.08;101454.59;4768126;30;20112;-61
2022/09/02 03:32:47;;;;;;;6.75;2.75;;;;;;;15.33;61.35;101448.38;4767989;30;20130;-59
2022/09/02 03:35:17;;;;;;;5.47;2.75;;;;;;;15.25;61.31;101455.59;4767932;30;20036;-59
2022/09/02 03:37:44;;;;;;;7.50;2.80;;;;;;;15.27;61.56;101455.56;4767716;30;20405;-61
2022/09/02 03:40:13;;;;;;;8.20;3.03;;;;;;;15.19;61.75;101447.84;4770834;30;20082;-61
2022/09/02 03:42:38;;;;;;;6.85;2.80;;;;;;;15.16;61.80;101444.41;4771219;30;20050;-62
2022/09/02 03:45:06;;;;;;;4.45;2.90;;;;;;;15.07;61.74;101437.53;4771066;30;20035;-61
2022/09/02 03:47:31;;;;;;;5.57;3.08;;;;;;;15.00;62.12;101445.63;4771177;30;20131;-59
2022/09/02 03:49:57;;;;;;;4.05;2.72;;;;;;;15.00;62.17;101437.72;4770920;30;20130;-61
2022/09/02 03:52:23;;;;;;;6.60;2.88;;;;;;;15.04;61.89;101431.50;4770780;30;20059;-58
2022/09/02 03:54:48;;;;;;;5.75;2.90;;;;;;;15.01;62.24;101437.69;4770842;30;20058;-60
2022/09/02 03:57:15;;;;;;;9.68;3.10;;;;;;;15.03;62.08;101435.91;4770727;30;20090;-61
2022/09/02 03:59:40;;;;;;;7.75;3.10;;;;;;;15.00;61.76;101421.91;4770841;30;20381;-59
2022/09/02 04:02:06;;;;;;;5.90;3.30;;;;;;;14.94;62.11;101429.06;4770737;30;20080;-60
2022/09/02 04:04:31;;;;;;;7.20;3.20;;;;;;;14.94;61.89;101431.69;4770611;30;20048;-61
2022/09/02 04:06:58;;;;;;;7.97;3.22;;;;;;;14.83;62.44;101432.84;4770578;30;20044;-60
2022/09/02 04:09:23;;;;;;;9.27;3.20;;;;;;;14.80;62.56;101433.75;4770596;30;20047;-62
2022/09/02 04:11:48;;;;;;;6.00;3.05;;;;;;;14.70;63.39;101426.97;4770523;30;20036;-62
2022/09/02 04:14:14;;;;;;;5.28;3.65;;;;;;;14.71;63.23;101426.06;4770474;30;20109;-60
2022/09/02 04:16:39;;;;;;;7.47;3.65;;;;;;;14.70;63.50;101426.09;4770698;30;20047;-61
2022/09/02 04:19:05;;;;;;;8.00;3.70;;;;;;;14.73;63.37;101426.88;4770338;30;20086;-60
2022/09/02 04:21:33;;;;;;;5.65;3.55;;;;;;;14.60;63.31;101420.13;4770373;30;20058;-60
2022/09/02 04:23:59;;;;;;;6.13;4.13;;;;;;;14.60;63.52;101422.75;4770412;30;20045;-60
2022/09/02 04:26:24;;;;;;;11.02;4.45;;;;;;;14.57;63.83;101420.19;4770298;30;20048;-60
2022/09/02 04:28:50;;;;;;;7.53;4.43;;;;;;;14.49;64.63;101423.00;4770402;30;20035;-60
2022/09/02 04:31:18;;;;;;;8.00;4.25;;;;;;;14.49;64.43;101424.75;4770411;30;20148;-60
2022/09/02 04:33:44;;;;;;;7.55;4.40;;;;;;;14.49;64.34;101411.59;4770121;30;20044;-60
2022/09/02 04:36:12;;;;;;;7.68;3.92;;;;;;;14.49;64.15;101408.97;4770157;30;20093;-61
2022/09/02 04:38:37;;;;;;;9.23;4.07;;;;;;;14.50;64.70;101418.59;4770178;30;20044;-60
2022/09/02 04:41:17;;;;;;;9.55;4.70;;;;;;;14.50;64.47;101419.47;4770131;30;20314;-61
2022/09/02 04:43:43;;;;;;;8.50;4.38;;;;;;;14.57;64.59;101407.88;4770083;30;20054;-60
2022/09/02 04:46:12;;;;;;;9.63;4.60;;;;;;;14.66;64.13;101413.88;4769843;30;20032;-60
2022/09/02 04:48:38;;;;;;;9.98;4.65;;;;;;;14.72;64.50;101414.59;4769848;30;20065;-61
2022/09/02 04:51:06;;;;;;;12.73;5.10;;;;;;;14.78;63.83;101410.97;4768752;30;20039;-61
2022/09/02 04:53:31;;;;;;;10.30;5.45;;;;;;;14.83;64.10;101417.88;4769928;30;20351;-61
2022/09/02 04:55:57;;;;;;;11.60;5.60;;;;;;;14.84;63.75;101413.50;4769646;30;20128;-60
2022/09/02 04:58:22;;;;;;;11.50;5.90;;;;;;;14.89;63.72;101415.09;4769995;30;20051;-59
2022/09/02 05:00:47;;;;;;;11.25;6.20;;;;;;;14.91;63.67;101415.06;4769812;30;20131;-62
2022/09/02 05:03:13;;;;;;;11.48;6.00;;;;;;;14.95;63.73;101407.06;4769767;30;20051;-61
2022/09/02 05:05:39;;;;;;;12.50;6.30;;;;;;;14.91;63.68;101396.63;4769563;30;20043;-60
2022/09/02 05:08:05;;;;;;;11.85;5.82;;;;;;;15.07;63.63;101416.47;4769673;30;20104;-63
2022/09/02 05:10:31;;;;;;;16.83;6.72;;;;;;;14.96;63.47;101400.91;4769661;30;20040;-58
2022/09/02 05:12:58;;;;;;;13.10;7.05;;;;;;;15.06;63.76;101409.47;4769658;30;20086;-59
2022/09/02 05:15:25;;;;;;;12.70;7.45;;;;;;;15.17;63.71;101417.13;4769459;30;20630;-60
2022/09/02 05:17:51;;;;;;;15.35;7.60;;;;;;;15.20;63.69;101417.06;4769372;30;20078;-61
2022/09/02 05:20:17;;;;;;;19.95;9.15;;;;;;;15.24;62.83;101416.94;4769434;30;20078;-61
2022/09/02 05:22:42;;;;;;;16.83;8.18;;;;;;;15.26;63.50;101412.50;4769370;30;20489;-64
2022/09/02 05:25:08;;;;;;;16.95;8.43;;;;;;;15.27;63.20;101416.00;4769391;30;20044;-59
2022/09/02 05:27:34;;;;;;;15.25;8.43;;;;;;;15.40;62.98;101414.81;4769372;30;20131;-61
2022/09/02 05:30:00;;;;;;;16.27;8.30;;;;;;;15.46;62.66;101409.38;4769325;30;20040;-61
2022/09/02 05:32:26;;;;;;;19.80;8.57;;;;;;;15.52;62.91;101411.00;4768982;30;20039;-58
2022/09/02 05:34:53;;;;;;;23.23;8.85;;;;;;;15.56;62.83;101418.84;4769290;30;20097;-64
2022/09/02 05:37:18;;;;;;;17.67;9.05;;;;;;;15.50;62.38;101411.03;4769228;30;20082;-60
2022/09/02 05:39:44;;;;;;;19.95;8.98;;;;;;;15.54;62.58;101415.34;4769212;30;20043;-59
2022/09/02 05:42:09;;;;;;;18.60;8.60;;;;;;;15.54;62.43;101412.72;4769224;30;20039;-60
2022/09/02 05:44:36;;;;;;;15.57;9.38;;;;;;;15.61;62.41;101418.72;4769047;30;20336;-62
2022/09/02 05:47:01;;;;;;;18.13;8.80;;;;;;;15.59;62.88;101413.47;4768872;30;20043;-59
2022/09/02 05:49:26;;;;;;;20.63;9.43;;;;;;;15.66;62.21;101420.34;4769134;30;20342;-61
2022/09/02 05:51:57;;;;;;;19.50;9.38;;;;;;;15.69;61.99;101416.78;4768817;30;20144;-59
2022/09/02 05:54:27;;;;;;;18.30;9.07;;;;;;;15.78;61.99;101418.28;4768932;30;20047;-61
2022/09/02 05:56:55;;;;;;;14.68;8.30;;;;;;;15.87;61.84;101418.06;4768875;30;20080;-62
2022/09/02 05:59:22;;;;;;;16.83;8.95;;;;;;;15.91;62.01;101414.44;4768819;30;20434;-60
2022/09/02 06:01:48;;;;;;;19.75;9.00;;;;;;;15.96;61.81;101412.53;4768666;30;20039;-59
2022/09/02 06:04:13;;;;;;;24.15;10.38;;;;;;;15.99;61.62;101407.19;4768717;30;20069;-61
2022/09/02 06:06:41;;;;;;;21.35;9.38;;;;;;;16.01;61.39;101402.72;4768850;30;20148;-59
2022/09/02 06:09:08;;;;;;;21.88;11.48;;;;;;;16.06;61.48;101411.41;4768779;30;20515;-60
2022/09/02 06:11:38;;;;;;;18.25;10.73;;;;;;;16.06;61.21;101406.13;4768791;30;20043;-61
2022/09/02 06:14:06;;;;;;;22.25;10.95;;;;;;;16.15;60.90;101405.00;4768765;30;20043;-61
2022/09/02 06:16:32;;;;;;;24.42;11.32;;;;;;;16.20;60.91;101403.09;4768666;30;20212;-61
2022/09/02 06:18:58;;;;;;;25.60;11.65;;;;;;;16.23;60.80;101408.28;4768554;30;20054;-62
2022/09/02 06:21:23;;;;;;;31.90;13.15;;;;;;;16.30;60.59;101413.34;4768706;30;20051;-61
2022/09/02 06:23:49;;;;;;;27.02;12.50;;;;;;;16.34;60.31;101403.56;4768768;30;20381;-60
2022/09/02 06:26:16;;;;;;;24.92;12.95;;;;;;;16.41;60.54;101401.63;4768649;30;20055;-59
2022/09/02 06:28:42;;;;;;;32.33;12.90;;;;;;;16.45;60.64;101403.28;4768655;30;20052;-61
2022/09/02 06:31:13;;;;;;;34.20;13.70;;;;;;;16.49;60.21;101404.91;4768564;30;20117;-61
2022/09/02 06:33:40;;;;;;;32.17;14.05;;;;;;;16.51;59.94;101405.72;4768487;30;20043;-59
2022/09/02 06:36:07;;;;;;;36.95;15.02;;;;;;;16.56;60.01;101404.69;4768545;30;20054;-60
2022/09/02 06:38:36;;;;;;;34.40;15.15;;;;;;;16.62;60.33;101408.94;4768588;30;20465;-60
2022/09/02 06:41:02;;;;;;;32.90;15.65;;;;;;;16.65;59.58;101409.72;4768406;30;20044;-59
2022/09/02 06:43:27;;;;;;;32.40;14.82;;;;;;;16.69;59.52;101403.44;4768646;30;20063;-60
2022/09/02 06:45:52;;;;;;;40.67;16.20;;;;;;;16.76;59.34;101396.22;4768393;30;20047;-59
2022/09/02 06:48:18;;;;;;;37.45;16.00;;;;;;;16.81;59.19;101399.56;4768416;30;20039;-59
2022/09/02 06:50:45;;;;;;;37.10;17.00;;;;;;;16.87;58.59;101402.03;4768331;30;20415;-60
2022/09/02 06:53:11;;;;;;;36.90;16.88;;;;;;;16.91;58.85;101395.75;4768172;30;20046;-61
2022/09/02 06:55:39;;;;;;;35.28;16.80;;;;;;;16.96;58.84;101404.41;4768091;30;20055;-61
2022/09/02 06:58:05;;;;;;;33.70;17.00;;;;;;;17.03;58.48;101405.06;4768182;30;20035;-60
2022/09/02 07:00:31;;;;;;;31.85;17.45;;;;;;;17.11;58.36;101394.25;4768434;30;20123;-60
2022/09/02 07:05:43;;;;;;;38.45;18.30;;;;;;;17.24;57.65;101399.09;4768523;30;20112;-59
2022/09/02 07:08:08;;;;;;;36.15;17.55;;;;;;;17.32;57.48;101394.41;4768228;30;20127;-62
2022/09/02 07:10:38;;;;;;;37.15;18.40;;;;;;;17.39;57.49;101401.25;4768248;30;20201;-60
2022/09/02 07:13:04;;;;;;;40.25;17.85;;;;;;;17.45;57.25;101394.03;4768654;30;20028;-61
2022/09/02 07:15:30;;;;;;;44.03;18.10;;;;;;;17.55;57.48;101383.09;4771550;30;20052;-61
2022/09/02 07:17:56;;;;;;;38.35;18.45;;;;;;;17.67;56.55;101393.28;4771577;30;20052;-59
2022/09/02 07:20:21;;;;;;;38.30;18.40;;;;;;;17.69;56.50;101382.63;4771582;30;20043;-60
2022/09/02 07:22:48;;;;;;;32.88;17.70;;;;;;;17.75;56.36;101385.09;4778072;30;20462;-61
2022/09/02 07:25:13;;;;;;;40.38;19.15;;;;;;;17.83;56.26;101382.19;4773935;29;20031;-60
2022/09/02 07:27:39;;;;;;;37.10;18.63;;;;;;;17.90;56.20;101386.34;4780010;29;20035;-61
2022/09/02 07:30:05;;;;;;;40.65;19.13;;;;;;;17.91;56.16;101377.47;4779831;30;20031;-59
2022/09/02 07:32:31;;;;;;;41.28;19.55;;;;;;;17.90;55.84;101368.66;4778840;29;20073;-62
2022/09/02 07:34:56;;;;;;;38.55;18.20;;;;;;;17.99;55.89;101378.09;4775997;30;20081;-61
2022/09/02 07:37:22;;;;;;;37.75;18.15;;;;;;;18.00;55.94;101374.53;4779341;29;20062;-62
2022/09/02 07:39:48;;;;;;;35.63;18.02;;;;;;;18.11;56.02;101379.41;4779927;30;20043;-64
2022/09/02 07:42:14;;;;;;;37.55;17.98;;;;;;;18.12;55.64;101368.78;4778640;29;20044;-63
2022/09/02 07:44:40;;;;;;;34.80;17.60;;;;;;;18.18;55.82;101373.84;4780072;29;20046;-59
2022/09/02 07:47:05;;;;;;;35.78;16.95;;;;;;;18.21;54.93;101380.81;4779612;30;20036;-52
2022/09/02 07:49:31;;;;;;;36.03;17.45;;;;;;;18.28;55.06;101375.22;4789018;29;20062;-54
2022/09/02 07:51:56;;;;;;;38.38;18.33;;;;;;;18.34;55.55;101372.38;4788734;29;20061;-51
2022/09/02 07:54:24;;;;;;;34.53;17.33;;;;;;;18.41;55.02;101370.34;4788520;29;20049;-60
2022/09/02 07:56:49;;;;;;;40.13;17.58;;;;;;;18.43;54.71;101377.31;4788578;29;20091;-60
2022/09/02 07:59:15;;;;;;;34.67;17.17;;;;;;;18.49;54.83;101370.06;4788660;29;20432;-59
2022/09/02 08:01:43;;;;;;;34.38;16.92;;;;;;;18.54;54.63;101370.72;4788546;29;20047;-60
2022/09/02 08:04:09;;;;;;;35.58;17.17;;;;;;;18.59;54.98;101374.13;4788665;29;20039;-60
2022/09/02 08:06:36;;;;;;;34.30;18.02;;;;;;;18.65;54.38;101377.41;4776361;29;20059;-59
2022/09/02 08:09:03;;;;;;;32.03;17.60;;;;;;;18.69;54.21;101375.50;4770081;30;20146;-58
2022/09/02 08:11:31;;;;;;;36.92;17.88;;;;;;;18.77;54.26;101366.31;4770545;30;20043;-59
2022/09/02 08:13:56;;;;;;;38.22;18.65;;;;;;;18.79;53.89;101366.25;4770620;30;20130;-60
2022/09/02 08:16:22;;;;;;;38.22;18.02;;;;;;;18.87;54.25;101361.53;4770402;30;20044;-58
2022/09/02 08:18:47;;;;;;;33.53;17.40;;;;;;;18.97;53.95;101365.53;4770445;30;20331;-61
2022/09/02 08:21:13;;;;;;;37.28;17.05;;;;;;;19.03;53.75;101367.97;4770373;30;20459;-59
2022/09/02 08:23:39;;;;;;;36.38;17.58;;;;;;;19.13;53.38;101365.78;4769956;30;20442;-60
2022/09/02 08:26:05;;;;;;;34.03;16.38;;;;;;;19.23;53.13;101361.81;4770391;30;20044;-59
2022/09/02 08:28:30;;;;;;;37.78;17.63;;;;;;;19.29;53.10;101360.72;4770432;30;20067;-60
2022/09/02 08:30:57;;;;;;;38.17;16.27;;;;;;;19.36;52.48;101354.22;4770131;30;20097;-62
2022/09/02 08:33:22;;;;;;;32.80;16.27;;;;;;;19.44;52.70;101344.13;4770293;30;20032;-61
2022/09/02 08:35:48;;;;;;;35.05;15.77;;;;;;;19.51;52.64;101350.97;4770232;30;20035;-60
2022/09/02 08:38:13;;;;;;;35.80;16.08;;;;;;;19.56;52.22;101346.34;4770178;30;20444;-60
2022/09/02 08:40:41;;;;;;;42.55;15.85;;;;;;;19.70;52.07;101351.91;4770001;30;20126;-59
2022/09/02 08:43:26;;;;;;;35.40;16.05;;;;;;;19.91;52.55;101349.25;4770030;30;20051;-60
2022/09/02 08:45:54;;;;;;;34.47;16.35;;;;;;;19.95;51.41;101349.03;4770169;30;20075;-60
2022/09/02 08:48:44;;;;;;;35.70;16.70;;;;;;;19.98;52.15;101348.91;4770079;30;20039;-60
2022/09/02 08:51:17;;;;;;;34.08;16.77;;;;;;;19.92;51.92;101354.47;4770063;30;20043;-60
2022/09/02 08:53:50;;;;;;;32.95;16.50;;;;;;;20.01;52.12;101350.56;4769676;30;20058;-61
2022/09/02 08:56:16;;;;;;;26.67;15.23;;;;;;;20.07;52.15;101343.19;4769853;30;20113;-60
2022/09/02 08:58:48;;;;;;;28.92;15.85;;;;;;;20.17;51.70;101349.81;4769837;30;20050;-59
2022/09/02 09:01:40;;;;;;;31.80;14.30;;;;;;;20.30;51.72;101355.41;4769887;30;20096;-59
2022/09/02 09:04:31;;;;;;;23.63;13.32;;;;;;;20.33;51.55;101360.59;4769668;30;20040;-59
2022/09/02 09:07:18;;;;;;;29.85;13.98;;;;;;;20.38;51.39;101348.00;4769418;30;20098;-56
2022/09/02 09:09:54;;;;;;;23.65;12.73;;;;;;;20.38;51.30;101352.47;4769493;30;20242;-59
2022/09/02 09:12:45;;;;;;;26.52;12.40;;;;;;;20.40;51.59;101356.78;4769451;30;20492;-59
2022/09/02 09:15:28;;;;;;;25.58;12.23;;;;;;;20.45;51.40;101352.09;4766778;30;20046;-54
2022/09/02 09:17:58;;;;;;;26.92;12.23;;;;;;;20.49;51.55;101355.47;4768444;30;20773;-61
2022/09/02 09:20:30;;;;;;;20.23;10.70;;;;;;;20.60;51.45;101357.66;4769765;30;20035;-62
2022/09/02 09:22:58;;;;;;;24.23;9.88;;;;;;;20.62;50.99;101353.09;4769453;30;20050;-61
2022/09/02 09:25:31;;;;;;;21.35;9.48;;;;;;;20.72;50.99;101351.75;4769211;30;20035;-61
2022/09/02 09:27:57;;;;;;;20.30;9.05;;;;;;;20.86;50.71;101354.59;4769388;30;20128;-60
2022/09/02 09:30:23;;;;;;;19.35;9.10;;;;;;;20.95;50.61;101356.84;4769102;30;20047;-60
2022/09/02 09:32:56;;;;;;;19.70;7.70;;;;;;;21.00;50.36;101341.50;4769141;30;20115;-60
2022/09/02 09:35:23;;;;;;;15.45;7.20;;;;;;;21.13;50.35;101345.25;4768499;30;20127;-60
2022/09/02 09:37:50;;;;;;;14.82;6.95;;;;;;;21.29;50.25;101352.56;4769081;30;20434;-61
2022/09/02 09:40:24;;;;;;;13.73;5.95;;;;;;;21.40;49.89;101335.09;4769135;30;20078;-62
2022/09/02 09:43:02;;;;;;;10.95;5.55;;;;;;;21.57;49.79;101336.91;4768981;30;20047;-62
2022/09/02 09:45:48;;;;;;;10.50;5.07;;;;;;;21.67;49.21;101339.94;4769023;30;20036;-60
2022/09/02 09:48:21;;;;;;;12.23;4.15;;;;;;;21.74;48.20;101339.53;4769033;30;20754;-59
2022/09/02 09:50:56;;;;;;;10.23;4.18;;;;;;;21.87;48.09;101334.44;4768711;30;20044;-60
2022/09/02 09:53:26;;;;;;;6.75;3.13;;;;;;;21.95;47.48;101323.38;4768478;30;20374;-61
2022/09/02 09:55:56;;;;;;;7.40;3.22;;;;;;;22.05;47.45;101327.31;4768663;30;20063;-61
2022/09/02 09:58:26;;;;;;;7.82;3.17;;;;;;;22.14;47.18;101329.50;4769107;30;20118;-53
2022/09/02 10:00:59;;;;;;;6.72;2.70;;;;;;;22.37;47.25;101329.09;4768544;30;20055;-52
2022/09/02 10:03:27;;;;;;;5.85;2.83;;;;;;;22.71;45.62;101316.53;4768825;30;20470;-51
2022/09/02 10:05:58;;;;;;;5.63;2.45;;;;;;;23.07;45.38;101319.81;4768481;30;20050;-51
2022/09/02 10:08:27;;;;;;;8.10;2.33;;;;;;;23.15;44.39;101306.03;4768910;30;20137;-52
2022/09/02 10:11:05;;;;;;;4.53;2.15;;;;;;;23.41;44.04;101310.69;4768776;30;20082;-51
2022/09/02 10:13:32;;;;;;;9.82;2.28;;;;;;;23.60;43.01;101313.16;4769048;30;20074;-53
2022/09/02 10:16:29;;;;;;;4.93;2.20;;;;;;;23.82;42.71;101305.56;4768824;30;20036;-50
2022/09/02 10:19:02;;;;;;;5.40;2.30;;;;;;;23.90;41.91;101297.91;4768325;30;20393;-51
2022/09/02 10:21:46;;;;;;;5.35;2.20;;;;;;;24.06;42.64;101302.31;4768920;30;20043;-53
2022/09/02 10:24:41;;;;;;;5.72;2.15;;;;;;;24.17;42.01;101299.81;4768446;30;20162;-50
2022/09/02 10:27:10;;;;;;;2.38;1.88;;;;;;;24.26;40.83;101300.13;4768647;30;20031;-51
2022/09/02 10:29:53;;;;;;;4.85;2.00;;;;;;;24.28;40.97;101284.84;4768416;30;20442;-61
2022/09/02 10:32:25;;;;;;;5.85;2.38;;;;;;;24.37;40.32;101285.22;4768764;30;20370;-59
2022/09/02 10:35:15;;;;;;;5.35;2.15;;;;;;;24.51;40.60;101285.19;4768387;30;20408;-59
2022/09/02 10:37:59;;;;;;;4.60;2.05;;;;;;;24.64;40.40;101286.13;4768625;30;20053;-58
2022/09/02 10:40:50;;;;;;;4.55;1.92;;;;;;;24.64;40.68;101281.63;4768490;30;20458;-61
2022/09/02 10:43:23;;;;;;;6.65;2.30;;;;;;;24.66;39.32;101284.19;4768452;30;20035;-62
2022/09/02 10:45:59;;;;;;;4.18;2.17;;;;;;;24.83;39.43;101283.94;4768406;30;20377;-61
2022/09/02 10:48:42;;;;;;;6.05;2.00;;;;;;;24.89;38.95;101272.00;4771279;30;20047;-58
2022/09/02 10:51:13;;;;;;;4.40;2.05;;;;;;;24.95;37.31;101266.25;4772177;30;20088;-61
2022/09/02 10:53:56;;;;;;;3.33;2.10;;;;;;;24.94;36.77;101249.31;4771736;30;20055;-59
2022/09/02 10:56:25;;;;;;;5.65;2.10;;;;;;;24.87;36.95;101266.72;4771773;30;20083;-60
2022/09/02 10:59:08;;;;;;;4.07;2.08;;;;;;;25.02;37.13;101259.53;4772116;30;20075;-61
2022/09/02 11:01:45;;;;;;;3.97;2.08;;;;;;;25.20;36.72;101260.97;4772092;30;20353;-60
2022/09/02 11:04:36;;;;;;;5.13;1.83;;;;;;;25.31;36.75;101254.84;4771901;30;20405;-58
2022/09/02 11:07:04;;;;;;;4.57;2.00;;;;;;;25.41;35.87;101260.47;4771765;30;20036;-60
2022/09/02 11:09:38;;;;;;;4.95;1.98;;;;;;;25.47;36.23;101247.47;4771860;30;20731;-52
2022/09/02 11:12:10;;;;;;;9.05;2.10;;;;;;;25.57;35.73;101248.56;4772460;30;20085;-62
2022/09/02 11:15:00;;;;;;;3.58;2.00;;;;;;;25.52;35.39;101247.16;4771619;30;20445;-60
2022/09/02 11:17:46;;;;;;;2.75;2.00;;;;;;;25.48;35.46;101245.66;4771567;30;20546;-60
2022/09/02 11:20:16;;;;;;;4.85;2.33;;;;;;;25.57;35.30;101234.31;4771608;30;20054;-59
2022/09/02 11:23:14;;;;;;;5.30;2.08;;;;;;;25.60;35.42;101234.09;4768683;30;20344;-60
2022/09/02 11:25:54;;;;;;;4.88;1.80;;;;;;;25.67;34.93;101220.19;4759637;30;20678;-60